createdAt,value
2022-08-05T00:01:36.412Z,24.00
2022-08-05T00:04:17.560Z,23.90
2022-08-05T00:06:45.454Z,23.90
2022-08-05T00:09:15.949Z,23.80
2022-08-05T00:11:49.497Z,23.80
2022-08-05T00:14:27.867Z,23.70
2022-08-05T00:16:57.151Z,23.80
2022-08-05T00:19:33.171Z,23.70
2022-08-05T00:22:02.058Z,23.70
2022-08-05T00:24:31.080Z,23.60
2022-08-05T00:26:59.900Z,23.70
2022-08-05T00:29:37.843Z,23.60
2022-08-05T00:32:11.009Z,23.60
2022-08-05T00:35:03.679Z,23.60
2022-08-05T00:37:50.649Z,23.60
2022-08-05T00:40:27.100Z,23.60
2022-08-05T00:42:58.752Z,23.60
2022-08-05T00:45:38.144Z,23.50
2022-08-05T00:48:09.501Z,23.50
2022-08-05T00:50:39.390Z,23.50
2022-08-05T00:53:09.485Z,23.50
2022-08-05T00:55:56.406Z,23.40
2022-08-05T00:58:27.327Z,23.40
2022-08-05T01:00:55.624Z,23.40
2022-08-05T01:03:24.514Z,23.40
2022-08-05T01:05:58.818Z,23.30
2022-08-05T01:08:41.106Z,23.30
2022-08-05T01:11:33.333Z,23.30
2022-08-05T01:14:15.404Z,23.30
2022-08-05T01:17:03.626Z,23.20
2022-08-05T01:20:01.764Z,23.20
2022-08-05T01:22:37.995Z,23.20
2022-08-05T01:25:53.400Z,23.10
2022-08-05T01:28:44.913Z,23.10
2022-08-05T01:31:21.560Z,23.10
2022-08-05T01:33:55.436Z,23.10
2022-08-05T01:36:28.112Z,23.00
2022-08-05T01:39:01.019Z,23.00
2022-08-05T01:41:34.390Z,23.00
2022-08-05T01:44:02.907Z,22.90
2022-08-05T01:46:41.984Z,22.90
2022-08-05T01:49:24.101Z,22.90
2022-08-05T01:52:02.507Z,22.90
2022-08-05T01:54:52.804Z,22.80
2022-08-05T01:58:10.382Z,22.80
2022-08-05T02:00:15.289Z,22.80
2022-08-05T02:02:54.877Z,22.70
2022-08-05T02:05:29.031Z,22.70
2022-08-05T02:08:01.646Z,22.70
2022-08-05T02:10:37.734Z,22.60
2022-08-05T02:13:53.843Z,22.60
2022-08-05T02:16:33.114Z,22.60
2022-08-05T02:19:34.999Z,22.50
2022-08-05T02:22:25.661Z,22.50
2022-08-05T02:25:02.154Z,22.50
2022-08-05T02:27:59.671Z,22.50
2022-08-05T02:30:22.846Z,22.50
2022-08-05T02:32:58.148Z,22.40
2022-08-05T02:35:28.055Z,22.40
2022-08-05T02:38:02.606Z,22.40
2022-08-05T02:40:31.923Z,22.30
2022-08-05T02:43:00.734Z,22.30
2022-08-05T02:45:52.673Z,22.30
2022-08-05T02:48:17.762Z,22.30
2022-08-05T02:50:48.401Z,22.20
2022-08-05T02:53:19.291Z,22.30
2022-08-05T02:55:54.265Z,22.20
2022-08-05T02:58:30.045Z,22.30
2022-08-05T03:01:01.746Z,22.20
2022-08-05T03:03:33.970Z,22.20
2022-08-05T03:06:54.922Z,22.20
2022-08-05T03:09:07.897Z,22.20
2022-08-05T03:11:56.372Z,22.10
2022-08-05T03:14:22.717Z,22.10
2022-08-05T03:16:53.359Z,22.20
2022-08-05T03:19:33.200Z,22.10
2022-08-05T03:22:02.197Z,22.10
2022-08-05T03:24:32.632Z,22.10
2022-08-05T03:27:01.654Z,22.10
2022-08-05T03:29:44.543Z,22.10
2022-08-05T03:32:14.313Z,22.00
2022-08-05T03:34:50.748Z,22.00
2022-08-05T03:37:19.164Z,22.00
2022-08-05T03:39:58.975Z,21.90
2022-08-05T03:42:28.925Z,21.90
2022-08-05T03:44:56.979Z,22.00
2022-08-05T03:47:24.972Z,21.90
2022-08-05T03:49:52.626Z,21.90
2022-08-05T03:52:50.201Z,21.90
2022-08-05T03:56:01.835Z,22.00
2022-08-05T03:58:16.763Z,22.00
2022-08-05T04:00:46.461Z,22.00
2022-08-05T04:03:28.243Z,22.00
2022-08-05T04:05:59.094Z,22.00
2022-08-05T04:08:34.832Z,21.90
2022-08-05T04:11:08.664Z,22.00
2022-08-05T04:13:49.948Z,22.00
2022-08-05T04:16:25.177Z,22.00
2022-08-05T04:19:00.053Z,22.00
2022-08-05T04:22:08.714Z,22.10
2022-08-05T04:24:19.743Z,22.10
2022-08-05T04:26:50.678Z,22.10
2022-08-05T04:29:19.029Z,22.20
2022-08-05T04:31:48.310Z,22.20
2022-08-05T04:34:31.710Z,22.20
2022-08-05T04:37:00.880Z,22.20
2022-08-05T04:39:32.156Z,22.20
2022-08-05T04:41:59.837Z,22.20
2022-08-05T04:44:30.275Z,22.30
2022-08-05T04:47:08.745Z,22.30
2022-08-05T04:50:03.050Z,22.40
2022-08-05T04:52:27.732Z,22.40
2022-08-05T04:54:57.435Z,22.40
2022-08-05T04:57:28.816Z,22.50
2022-08-05T04:59:58.746Z,22.60
2022-08-05T05:02:37.403Z,22.60
2022-08-05T05:05:26.399Z,22.60
2022-08-05T05:08:01.169Z,22.60
2022-08-05T05:10:33.182Z,22.80
2022-08-05T05:13:03.773Z,22.80
2022-08-05T05:15:57.512Z,22.90
2022-08-05T05:18:31.146Z,22.90
2022-08-05T05:21:03.295Z,23.10
2022-08-05T05:24:02.064Z,23.20
2022-08-05T05:26:18.149Z,23.30
2022-08-05T05:28:45.680Z,23.40
2022-08-05T05:31:13.302Z,23.50
2022-08-05T05:33:58.929Z,23.60
2022-08-05T05:36:28.424Z,23.70
2022-08-05T05:38:57.415Z,23.90
2022-08-05T05:41:25.292Z,24.00
2022-08-05T05:44:35.608Z,24.10
2022-08-05T05:46:56.221Z,24.20
2022-08-05T05:49:25.428Z,24.40
2022-08-05T05:51:53.701Z,24.60
2022-08-05T05:54:22.192Z,24.70
2022-08-05T05:57:13.809Z,24.80
2022-08-05T05:59:48.856Z,25.00
2022-08-05T06:02:16.671Z,25.20
2022-08-05T06:04:44.459Z,25.30
2022-08-05T06:07:16.767Z,25.40
2022-08-05T06:10:03.390Z,25.60
2022-08-05T06:12:34.711Z,25.80
2022-08-05T06:15:14.791Z,25.90
2022-08-05T06:17:52.604Z,26.00
2022-08-05T06:20:21.763Z,26.20
2022-08-05T06:22:49.129Z,26.30
2022-08-05T06:25:59.279Z,26.40
2022-08-05T06:28:12.136Z,26.60
2022-08-05T06:30:48.583Z,26.60
2022-08-05T06:33:19.208Z,26.90
2022-08-05T06:36:07.113Z,27.00
2022-08-05T06:38:36.223Z,27.20
2022-08-05T06:41:05.296Z,27.30
2022-08-05T06:43:57.661Z,27.40
2022-08-05T06:46:23.127Z,27.50
2022-08-05T06:49:00.904Z,27.60
2022-08-05T06:51:30.802Z,27.70
2022-08-05T06:54:03.890Z,27.90
2022-08-05T06:56:33.368Z,28.10
2022-08-05T06:59:03.879Z,28.30
2022-08-05T07:01:41.540Z,28.40
2022-08-05T07:04:09.897Z,28.40
2022-08-05T07:06:37.655Z,28.50
2022-08-05T07:09:05.548Z,28.60
2022-08-05T07:11:37.239Z,28.70
2022-08-05T07:14:29.729Z,28.80
2022-08-05T07:18:01.761Z,28.90
2022-08-05T07:22:38.882Z,29.10
2022-08-05T07:25:24.116Z,29.30
2022-08-05T07:27:58.829Z,29.40
2022-08-05T07:30:38.412Z,29.50
2022-08-05T07:33:15.679Z,29.50
2022-08-05T07:36:04.202Z,29.60
2022-08-05T07:38:34.420Z,29.70
2022-08-05T07:42:08.032Z,29.90
2022-08-05T07:43:57.184Z,30.00
2022-08-05T07:46:29.477Z,29.90
2022-08-05T07:49:05.464Z,30.00
2022-08-05T07:51:36.820Z,30.10
2022-08-05T07:54:08.222Z,30.20
2022-08-05T07:56:54.782Z,30.20
2022-08-05T07:59:38.133Z,30.30
2022-08-05T08:02:15.758Z,30.40
2022-08-05T08:04:45.671Z,30.40
2022-08-05T08:07:14.163Z,30.50
2022-08-05T08:09:43.175Z,30.60
2022-08-05T08:12:30.586Z,30.70
2022-08-05T08:15:02.543Z,30.80
2022-08-05T08:17:31.827Z,30.90
2022-08-05T08:20:43.862Z,30.90
2022-08-05T08:23:03.360Z,30.90
2022-08-05T08:25:59.715Z,31.00
2022-08-05T08:28:37.106Z,31.00
2022-08-05T08:31:09.157Z,31.20
2022-08-05T08:33:37.932Z,31.20
2022-08-05T08:38:56.910Z,31.30
2022-08-05T08:41:50.646Z,31.40
2022-08-05T08:45:21.321Z,31.30
2022-08-05T08:47:47.681Z,31.40
2022-08-05T08:50:22.323Z,31.50
2022-08-05T08:52:51.684Z,31.40
2022-08-05T08:56:01.964Z,31.50
2022-08-05T08:58:10.209Z,31.50
2022-08-05T09:00:41.799Z,31.50
2022-08-05T09:03:11.456Z,31.60
2022-08-05T09:06:07.877Z,31.70
2022-08-05T09:08:30.053Z,31.80
2022-08-05T09:10:58.526Z,31.80
2022-08-05T09:13:31.447Z,31.70
2022-08-05T09:15:59.851Z,31.60
2022-08-05T09:18:27.605Z,31.70
2022-08-05T09:20:57.068Z,31.80
2022-08-05T09:23:27.174Z,31.80
2022-08-05T09:26:20.486Z,31.80
2022-08-05T09:28:49.708Z,31.80
2022-08-05T09:31:23.417Z,31.70
2022-08-05T09:34:13.040Z,31.80
2022-08-05T09:36:54.004Z,32.00
2022-08-05T09:39:41.268Z,32.00
2022-08-05T09:42:24.084Z,32.10
2022-08-05T09:44:57.371Z,32.10
2022-08-05T09:47:48.160Z,32.00
2022-08-05T09:50:37.406Z,32.00
2022-08-05T09:53:06.219Z,31.90
2022-08-05T09:55:58.343Z,31.90
2022-08-05T09:58:25.926Z,31.90
2022-08-05T10:01:14.844Z,31.90
2022-08-05T10:04:00.488Z,32.20
2022-08-05T10:06:28.436Z,32.30
2022-08-05T10:09:09.551Z,32.30
2022-08-05T10:11:52.700Z,32.30
2022-08-05T10:14:32.719Z,32.30
2022-08-05T10:17:37.444Z,32.30
2022-08-05T10:20:10.919Z,32.20
2022-08-05T10:22:48.569Z,32.30
2022-08-05T10:25:16.341Z,32.10
2022-08-05T10:28:13.798Z,32.10
2022-08-05T10:31:20.849Z,32.30
2022-08-05T10:33:20.947Z,32.30
2022-08-05T10:35:59.000Z,32.30
2022-08-05T10:38:33.035Z,32.40
2022-08-05T10:41:23.462Z,32.40
2022-08-05T10:43:57.632Z,32.60
2022-08-05T10:46:44.890Z,32.60
2022-08-05T10:49:16.427Z,32.50
2022-08-05T10:52:00.678Z,32.50
2022-08-05T10:54:56.489Z,32.70
2022-08-05T10:57:31.792Z,32.60
2022-08-05T11:00:20.875Z,32.60
2022-08-05T11:03:23.556Z,32.50
2022-08-05T11:06:05.057Z,32.60
2022-08-05T11:08:37.238Z,32.60
2022-08-05T11:11:44.426Z,32.60
2022-08-05T11:17:58.089Z,32.30
2022-08-05T11:21:11.490Z,32.30
2022-08-05T11:24:03.951Z,32.40
2022-08-05T11:26:33.382Z,32.80
2022-08-05T11:29:11.600Z,32.90
2022-08-05T11:31:54.492Z,32.90
2022-08-05T11:34:38.117Z,32.90
2022-08-05T11:37:06.119Z,32.70
2022-08-05T11:39:55.545Z,32.80
2022-08-05T11:42:40.581Z,33.00
2022-08-05T11:45:23.387Z,32.90
2022-08-05T11:47:57.954Z,33.00
2022-08-05T11:50:26.512Z,33.00
2022-08-05T11:52:57.585Z,33.00
2022-08-05T11:55:32.290Z,33.00
2022-08-05T11:58:09.174Z,33.10
2022-08-05T12:00:41.322Z,33.00
2022-08-05T12:03:29.177Z,32.90
2022-08-05T12:06:10.145Z,33.10
2022-08-05T12:08:49.926Z,33.20
2022-08-05T12:11:20.701Z,33.20
2022-08-05T12:13:59.421Z,33.20
2022-08-05T12:16:30.045Z,33.10
2022-08-05T12:18:57.613Z,33.20
2022-08-05T12:21:30.718Z,33.10
2022-08-05T12:24:07.784Z,33.10
2022-08-05T12:26:37.702Z,33.00
2022-08-05T12:29:09.762Z,33.00
2022-08-05T12:31:43.664Z,33.10
2022-08-05T12:34:21.370Z,33.20
2022-08-05T12:36:52.393Z,33.30
2022-08-05T12:39:19.826Z,33.30
2022-08-05T12:41:47.389Z,33.30
2022-08-05T12:44:21.872Z,33.30
2022-08-05T12:47:02.065Z,33.20
2022-08-05T12:50:04.492Z,33.40
2022-08-05T12:52:41.951Z,33.30
2022-08-05T12:55:26.332Z,33.40
2022-08-05T12:58:38.336Z,33.30
2022-08-05T13:02:03.962Z,33.30
2022-08-05T13:03:41.702Z,33.40
2022-08-05T13:06:13.876Z,33.30
2022-08-05T13:08:49.072Z,33.30
2022-08-05T13:12:01.952Z,33.30
2022-08-05T13:14:42.113Z,33.30
2022-08-05T13:17:25.219Z,33.40
2022-08-05T13:20:20.405Z,33.40
2022-08-05T13:22:52.590Z,33.40
2022-08-05T13:25:22.244Z,33.40
2022-08-05T13:28:10.663Z,33.40
2022-08-05T13:30:39.164Z,33.50
2022-08-05T13:33:06.597Z,33.40
2022-08-05T13:35:47.229Z,33.40
2022-08-05T13:38:28.657Z,33.50
2022-08-05T13:40:59.899Z,33.60
2022-08-05T13:43:44.496Z,33.60
2022-08-05T13:46:13.854Z,33.70
2022-08-05T13:49:00.347Z,33.70
2022-08-05T13:51:40.285Z,33.60
2022-08-05T13:54:12.536Z,33.50
2022-08-05T13:56:50.285Z,33.50
2022-08-05T13:59:24.930Z,33.60
2022-08-05T14:01:58.586Z,33.60
2022-08-05T14:04:49.899Z,33.60
2022-08-05T14:07:26.056Z,33.50
2022-08-05T14:10:28.678Z,33.50
2022-08-05T14:12:57.090Z,33.50
2022-08-05T14:16:06.815Z,33.50
2022-08-05T14:18:17.420Z,33.50
2022-08-05T14:20:52.846Z,33.40
2022-08-05T14:23:23.888Z,33.30
2022-08-05T14:25:58.100Z,33.30
2022-08-05T14:28:30.324Z,33.30
2022-08-05T14:30:59.799Z,33.30
2022-08-05T14:33:32.557Z,33.20
2022-08-05T14:36:15.924Z,33.20
2022-08-05T14:38:49.101Z,33.20
2022-08-05T14:41:17.666Z,33.20
2022-08-05T14:44:01.510Z,33.20
2022-08-05T14:46:32.605Z,33.20
2022-08-05T14:49:07.351Z,33.10
2022-08-05T14:51:42.798Z,33.10
2022-08-05T14:54:26.498Z,33.10
2022-08-05T14:56:56.969Z,33.20
2022-08-05T14:59:24.308Z,33.10
2022-08-05T15:01:51.836Z,33.10
2022-08-05T15:04:22.594Z,33.10
2022-08-05T15:06:51.664Z,33.10
2022-08-05T15:09:52.681Z,33.10
2022-08-05T15:12:11.399Z,33.00
2022-08-05T15:14:49.827Z,33.00
2022-08-05T15:17:47.675Z,32.90
2022-08-05T15:20:11.964Z,32.80
2022-08-05T15:22:44.966Z,33.00
2022-08-05T15:25:14.024Z,32.80
2022-08-05T15:27:42.886Z,32.80
2022-08-05T15:30:14.259Z,32.80
2022-08-05T15:32:43.937Z,32.70
2022-08-05T15:35:12.599Z,32.60
2022-08-05T15:38:31.719Z,32.60
2022-08-05T15:41:00.736Z,32.50
2022-08-05T15:43:20.678Z,32.60
2022-08-05T15:46:00.233Z,32.50
2022-08-05T15:48:30.064Z,32.50
2022-08-05T15:51:01.053Z,32.40
2022-08-05T15:53:38.073Z,32.40
2022-08-05T15:56:13.043Z,32.30
2022-08-05T15:58:41.819Z,32.20
2022-08-05T16:01:16.173Z,32.30
2022-08-05T16:03:48.454Z,32.30
2022-08-05T16:06:20.291Z,32.20
2022-08-05T16:08:51.031Z,32.10
2022-08-05T16:11:21.083Z,32.00
2022-08-05T16:14:06.291Z,32.00
2022-08-05T16:16:35.324Z,32.00
2022-08-05T16:19:03.502Z,32.00
2022-08-05T16:22:00.200Z,32.10
2022-08-05T16:24:40.337Z,32.00
2022-08-05T16:27:07.342Z,31.90
2022-08-05T16:29:37.120Z,32.00
2022-08-05T16:32:06.730Z,32.00
2022-08-05T16:34:39.445Z,31.70
2022-08-05T16:38:02.403Z,31.50
2022-08-05T16:40:05.690Z,31.40
2022-08-05T16:42:34.742Z,31.30
2022-08-05T16:45:05.954Z,31.20
2022-08-05T16:47:53.428Z,31.10
2022-08-05T16:50:23.087Z,31.00
2022-08-05T16:52:50.224Z,30.90
2022-08-05T16:55:17.586Z,30.80
2022-08-05T16:58:00.380Z,30.80
2022-08-05T17:00:35.103Z,30.80
2022-08-05T17:03:13.309Z,30.70
2022-08-05T17:05:51.834Z,30.60
2022-08-05T17:08:36.685Z,30.60
2022-08-05T17:11:12.684Z,30.50
2022-08-05T17:13:45.638Z,30.60
2022-08-05T17:16:32.599Z,30.50
2022-08-05T17:19:01.436Z,30.40
2022-08-05T17:21:35.766Z,30.40
2022-08-05T17:24:30.084Z,30.40
2022-08-05T17:26:59.099Z,30.40
2022-08-05T17:29:32.774Z,30.30
2022-08-05T17:32:01.837Z,30.30
2022-08-05T17:34:29.927Z,30.20
2022-08-05T17:37:00.772Z,30.20
2022-08-05T17:39:33.399Z,30.10
2022-08-05T17:42:17.295Z,30.10
2022-08-05T17:44:51.379Z,30.00
2022-08-05T17:47:23.104Z,29.90
2022-08-05T17:50:04.318Z,29.90
2022-08-05T17:52:52.600Z,29.90
2022-08-05T17:55:21.873Z,29.80
2022-08-05T17:57:50.286Z,29.70
2022-08-05T18:00:18.535Z,29.60
2022-08-05T18:02:47.614Z,29.50
2022-08-05T18:05:16.824Z,29.50
2022-08-05T18:07:44.936Z,29.40
2022-08-05T18:10:20.771Z,29.30
2022-08-05T18:12:49.990Z,29.20
2022-08-05T18:15:17.388Z,29.20
2022-08-05T18:17:59.134Z,29.10
2022-08-05T18:20:32.386Z,29.10
2022-08-05T18:23:11.871Z,29.00
2022-08-05T18:25:45.210Z,29.00
2022-08-05T18:28:16.484Z,28.90
2022-08-05T18:30:45.666Z,28.80
2022-08-05T18:33:22.595Z,28.80
2022-08-05T18:36:03.394Z,28.80
2022-08-05T18:38:36.252Z,28.70
2022-08-05T18:41:56.810Z,28.70
2022-08-05T18:43:55.308Z,28.60
2022-08-05T18:46:26.095Z,28.60
2022-08-05T18:48:56.638Z,28.50
2022-08-05T18:52:05.934Z,28.40
2022-08-05T18:54:31.861Z,28.40
2022-08-05T18:57:02.779Z,28.40
2022-08-05T18:59:44.437Z,28.30
2022-08-05T19:02:28.101Z,28.30
2022-08-05T19:05:02.516Z,28.20
2022-08-05T19:07:50.345Z,28.20
2022-08-05T19:10:26.628Z,28.10
2022-08-05T19:12:56.933Z,28.10
2022-08-05T19:15:58.046Z,28.00
2022-08-05T19:18:22.328Z,28.00
2022-08-05T19:20:54.552Z,28.00
2022-08-05T19:24:06.877Z,28.00
2022-08-05T19:26:11.235Z,27.90
2022-08-05T19:28:44.117Z,27.80
2022-08-05T19:31:17.700Z,27.80
2022-08-05T19:33:55.720Z,27.80
2022-08-05T19:36:26.701Z,27.80
2022-08-05T19:38:58.816Z,27.80
2022-08-05T19:41:58.410Z,27.70
2022-08-05T19:44:16.088Z,27.70
2022-08-05T19:46:44.107Z,27.70
2022-08-05T19:49:16.449Z,27.60
2022-08-05T19:52:04.551Z,27.60
2022-08-05T19:54:35.435Z,27.60
2022-08-05T19:57:06.574Z,27.50
2022-08-05T19:59:54.549Z,27.50
2022-08-05T20:02:28.328Z,27.50
2022-08-05T20:04:59.026Z,27.40
2022-08-05T20:07:47.276Z,27.40
2022-08-05T20:10:19.388Z,27.30
2022-08-05T20:12:52.253Z,27.20
2022-08-05T20:15:48.782Z,27.20
2022-08-05T20:18:33.606Z,27.20
2022-08-05T20:20:59.862Z,27.10
2022-08-05T20:23:39.291Z,27.10
2022-08-05T20:26:16.391Z,27.10
2022-08-05T20:28:55.731Z,27.10
2022-08-05T20:31:37.266Z,27.10
2022-08-05T20:34:15.098Z,27.00
2022-08-05T20:36:43.445Z,26.90
2022-08-05T20:39:13.473Z,26.90
2022-08-05T20:41:45.433Z,26.90
2022-08-05T20:44:19.436Z,26.80
2022-08-05T20:46:59.368Z,26.80
2022-08-05T20:49:27.440Z,26.80
2022-08-05T20:51:57.463Z,26.70
2022-08-05T20:54:43.540Z,26.70
2022-08-05T20:57:42.715Z,26.70
2022-08-05T21:00:19.607Z,26.70
2022-08-05T21:02:54.635Z,26.60
2022-08-05T21:05:24.272Z,26.60
2022-08-05T21:07:52.260Z,26.60
2022-08-05T21:10:20.717Z,26.50
2022-08-05T21:13:08.224Z,26.50
2022-08-05T21:15:36.833Z,26.40
2022-08-05T21:18:04.457Z,26.40
2022-08-05T21:20:33.279Z,26.40
2022-08-05T21:23:01.361Z,26.40
2022-08-05T21:25:33.713Z,26.30
2022-08-05T21:28:03.356Z,26.30
2022-08-05T21:30:31.709Z,26.20
2022-08-05T21:33:01.720Z,26.20
2022-08-05T21:35:55.326Z,26.20
2022-08-05T21:38:17.665Z,26.10
2022-08-05T21:40:45.156Z,26.10
2022-08-05T21:43:23.908Z,26.10
2022-08-05T21:45:57.514Z,26.00
2022-08-05T21:48:28.756Z,26.00
2022-08-05T21:50:57.176Z,26.00
2022-08-05T21:53:27.487Z,26.00
2022-08-05T21:56:06.570Z,26.00
2022-08-05T21:58:56.885Z,25.90
2022-08-05T22:01:26.547Z,25.90
2022-08-05T22:03:54.315Z,25.80
2022-08-05T22:06:34.787Z,25.80
2022-08-05T22:09:14.651Z,25.70
2022-08-05T22:11:43.717Z,25.70
2022-08-05T22:14:32.696Z,25.70
2022-08-05T22:17:05.377Z,25.60
2022-08-05T22:20:03.375Z,25.60
2022-08-05T22:22:26.657Z,25.60
2022-08-05T22:25:21.716Z,25.60
2022-08-05T22:28:08.538Z,25.50
2022-08-05T22:30:55.597Z,25.50
2022-08-05T22:33:58.439Z,25.40
2022-08-05T22:36:14.605Z,25.50
2022-08-05T22:38:48.037Z,25.40
2022-08-05T22:41:16.527Z,25.40
2022-08-05T22:44:03.812Z,25.30
2022-08-05T22:46:31.803Z,25.30
2022-08-05T22:49:00.024Z,25.30
2022-08-05T22:52:04.644Z,25.20
2022-08-05T22:54:14.906Z,25.20
2022-08-05T22:56:42.673Z,25.20
2022-08-05T22:59:43.767Z,25.20
2022-08-05T23:02:05.517Z,25.10
2022-08-05T23:04:35.079Z,25.10
2022-08-05T23:07:03.782Z,25.10
2022-08-05T23:09:53.392Z,25.10
2022-08-05T23:12:24.041Z,25.00
2022-08-05T23:14:51.779Z,25.00
2022-08-05T23:17:34.587Z,24.90
2022-08-05T23:20:16.440Z,24.90
2022-08-05T23:22:47.480Z,24.90
2022-08-05T23:25:52.053Z,24.80
2022-08-05T23:28:07.208Z,24.80
2022-08-05T23:30:40.480Z,24.80
2022-08-05T23:33:19.019Z,24.80
2022-08-05T23:35:55.866Z,24.80
2022-08-05T23:38:26.713Z,24.70
2022-08-05T23:40:54.241Z,24.70
2022-08-05T23:43:24.982Z,24.70
2022-08-05T23:46:19.869Z,24.70
2022-08-05T23:48:59.590Z,24.70
2022-08-05T23:51:58.068Z,24.70
2022-08-05T23:54:30.284Z,24.60
2022-08-05T23:57:03.757Z,24.60
2022-08-05T23:59:37.633Z,24.60
